GFA181 OBBI-OEJN
Flight info
| Callsign | GFA181 |
|---|---|
| Flight time | 2h 3m |
| Altitude | 34000 |
| Route | BHR B457 NARMI N112 GETOT Q212 KSA G782 VEMEM |
| Aircraft | A321/M-SDE3FGHIRWY/LB1 |
Departure
| Time | 2026-04-26 23:54 |
|---|---|
| Airport | Bahrain International Airport (OBBI) |
Arrival
| Time | 2026-04-27 01:58 |
|---|---|
| Airport | King Abdulaziz International Airport (OEJN) |
| Time | Latitude | Longitude | Altitude | Speed | Heading |
|---|---|---|---|---|---|
| 2026-04-26 23:28 | 26.26455 | 50.63687 | 21 ft | 0 kts | 213° |
| 2026-04-26 23:45 | 26.26462 | 50.63693 | 21 ft | 4 kts | 211° |
| 2026-04-26 23:46 | 26.26486 | 50.63708 | 22 ft | 4 kts | 206° |
| 2026-04-26 23:46 | 26.26511 | 50.63720 | 24 ft | 4 kts | 197° |
| 2026-04-26 23:46 | 26.26537 | 50.63725 | 23 ft | 4 kts | 173° |
| 2026-04-26 23:46 | 26.26555 | 50.63716 | 25 ft | 1 kts | 122° |
| 2026-04-26 23:47 | 26.26557 | 50.63712 | 21 ft | 1 kts | 122° |
| 2026-04-26 23:49 | 26.26556 | 50.63715 | 21 ft | 1 kts | 117° |
| 2026-04-26 23:49 | 26.26557 | 50.63727 | 25 ft | 3 kts | 90° |
| 2026-04-26 23:49 | 26.26573 | 50.63748 | 23 ft | 5 kts | 34° |
| 2026-04-26 23:50 | 26.26608 | 50.63781 | 22 ft | 8 kts | 58° |
| 2026-04-26 23:50 | 26.26596 | 50.63851 | 23 ft | 11 kts | 118° |
| 2026-04-26 23:50 | 26.26551 | 50.63930 | 22 ft | 13 kts | 123° |
| 2026-04-26 23:50 | 26.26494 | 50.64028 | 21 ft | 17 kts | 123° |
| 2026-04-26 23:51 | 26.26424 | 50.64150 | 20 ft | 20 kts | 122° |
| 2026-04-26 23:51 | 26.26344 | 50.64288 | 21 ft | 23 kts | 123° |
| 2026-04-26 23:51 | 26.26254 | 50.64444 | 19 ft | 25 kts | 122° |
| 2026-04-26 23:51 | 26.26158 | 50.64612 | 20 ft | 26 kts | 123° |
| 2026-04-26 23:52 | 26.26063 | 50.64776 | 20 ft | 19 kts | 122° |
| 2026-04-26 23:52 | 26.26015 | 50.64890 | 21 ft | 16 kts | 95° |
| 2026-04-26 23:52 | 26.26049 | 50.64964 | 19 ft | 5 kts | 34° |
| 2026-04-26 23:52 | 26.26088 | 50.64993 | 18 ft | 8 kts | 34° |
| 2026-04-26 23:53 | 26.26131 | 50.64998 | 20 ft | 6 kts | 328° |
| 2026-04-26 23:53 | 26.26163 | 50.64958 | 19 ft | 8 kts | 302° |
| 2026-04-26 23:53 | 26.26239 | 50.64827 | 16 ft | 48 kts | 303° |
| 2026-04-26 23:53 | 26.26552 | 50.64282 | 15 ft | 116 kts | 302° |
| 2026-04-26 23:54 | 26.27093 | 50.63344 | 15 ft | 169 kts | 303° |
| 2026-04-26 23:54 | 26.27768 | 50.62166 | 429 ft | 181 kts | 303° |
| 2026-04-26 23:54 | 26.28444 | 50.60983 | 1136 ft | 181 kts | 304° |
| 2026-04-26 23:54 | 26.28858 | 50.59651 | 1793 ft | 189 kts | 278° |
| 2026-04-26 23:55 | 26.28927 | 50.58131 | 2063 ft | 206 kts | 276° |
| 2026-04-26 23:55 | 26.29005 | 50.56458 | 2201 ft | 227 kts | 276° |
| 2026-04-26 23:55 | 26.29093 | 50.54611 | 2312 ft | 251 kts | 275° |
| 2026-04-26 23:55 | 26.29187 | 50.52626 | 2693 ft | 264 kts | 276° |
| 2026-04-26 23:56 | 26.29279 | 50.50580 | 3371 ft | 265 kts | 275° |
| 2026-04-26 23:56 | 26.29370 | 50.48520 | 4066 ft | 266 kts | 275° |
| 2026-04-26 23:56 | 26.29457 | 50.46468 | 4769 ft | 265 kts | 275° |
| 2026-04-26 23:56 | 26.29545 | 50.44410 | 5451 ft | 265 kts | 275° |
| 2026-04-26 23:57 | 26.29635 | 50.42357 | 6135 ft | 265 kts | 274° |
| 2026-04-26 23:57 | 26.29726 | 50.40295 | 6744 ft | 267 kts | 274° |
| 2026-04-26 23:57 | 26.29817 | 50.38249 | 7359 ft | 268 kts | 274° |
| 2026-04-26 23:57 | 26.29911 | 50.36174 | 8004 ft | 268 kts | 274° |
| 2026-04-26 23:58 | 26.30005 | 50.34093 | 8653 ft | 269 kts | 274° |
| 2026-04-26 23:58 | 26.30164 | 50.32021 | 9298 ft | 269 kts | 280° |
| 2026-04-26 23:58 | 26.30461 | 50.29957 | 9938 ft | 269 kts | 279° |
| 2026-04-26 23:58 | 26.30761 | 50.27862 | 10288 ft | 282 kts | 279° |
| 2026-04-26 23:59 | 26.31080 | 50.25631 | 10408 ft | 301 kts | 279° |
| 2026-04-26 23:59 | 26.31417 | 50.23254 | 10531 ft | 318 kts | 279° |
| 2026-04-26 23:59 | 26.31767 | 50.20758 | 10658 ft | 335 kts | 279° |
| 2026-04-26 23:59 | 26.32129 | 50.18175 | 10892 ft | 345 kts | 278° |
| 2026-04-27 00:00 | 26.32277 | 50.15487 | 11322 ft | 350 kts | 269° |
| 2026-04-27 00:00 | 26.32214 | 50.12769 | 11834 ft | 352 kts | 269° |
| 2026-04-27 00:00 | 26.32155 | 50.10035 | 12356 ft | 354 kts | 269° |
| 2026-04-27 00:00 | 26.32097 | 50.07279 | 12864 ft | 357 kts | 269° |
| 2026-04-27 00:01 | 26.32042 | 50.04494 | 13383 ft | 359 kts | 269° |
| 2026-04-27 00:01 | 26.31986 | 50.01696 | 13869 ft | 362 kts | 269° |
| 2026-04-27 00:01 | 26.31929 | 49.98881 | 14340 ft | 364 kts | 269° |
| 2026-04-27 00:01 | 26.31870 | 49.96053 | 14813 ft | 367 kts | 269° |
| 2026-04-27 00:02 | 26.31810 | 49.93201 | 15281 ft | 369 kts | 269° |
| 2026-04-27 00:02 | 26.31746 | 49.90330 | 15748 ft | 372 kts | 268° |
| 2026-04-27 00:02 | 26.31677 | 49.87446 | 16247 ft | 373 kts | 268° |
| 2026-04-27 00:02 | 26.31606 | 49.84555 | 16717 ft | 374 kts | 268° |
| 2026-04-27 00:03 | 26.31536 | 49.81646 | 17170 ft | 376 kts | 268° |
| 2026-04-27 00:03 | 26.31471 | 49.78766 | 17599 ft | 378 kts | 269° |
| 2026-04-27 00:03 | 26.31405 | 49.75830 | 18027 ft | 380 kts | 269° |
| 2026-04-27 00:03 | 26.31336 | 49.72879 | 18378 ft | 383 kts | 268° |
| 2026-04-27 00:04 | 26.31266 | 49.69898 | 18723 ft | 385 kts | 268° |
| 2026-04-27 00:04 | 26.31195 | 49.66909 | 19139 ft | 386 kts | 268° |
| 2026-04-27 00:04 | 26.31122 | 49.63914 | 19562 ft | 386 kts | 268° |
| 2026-04-27 00:04 | 26.31051 | 49.60925 | 20002 ft | 386 kts | 268° |
| 2026-04-27 00:05 | 26.30980 | 49.57930 | 20426 ft | 386 kts | 268° |
| 2026-04-27 00:05 | 26.30906 | 49.54941 | 20852 ft | 386 kts | 268° |
| 2026-04-27 00:05 | 26.30831 | 49.51988 | 21255 ft | 386 kts | 268° |
| 2026-04-27 00:05 | 26.30755 | 49.48993 | 21626 ft | 387 kts | 268° |
| 2026-04-27 00:06 | 26.30679 | 49.45992 | 22013 ft | 387 kts | 268° |
| 2026-04-27 00:06 | 26.30601 | 49.42990 | 22392 ft | 388 kts | 268° |
| 2026-04-27 00:06 | 26.30522 | 49.39986 | 22782 ft | 388 kts | 268° |
| 2026-04-27 00:06 | 26.30443 | 49.36979 | 23167 ft | 388 kts | 268° |
| 2026-04-27 00:07 | 26.30365 | 49.33970 | 23536 ft | 389 kts | 268° |
| 2026-04-27 00:07 | 26.30289 | 49.30956 | 23831 ft | 390 kts | 268° |
| 2026-04-27 00:07 | 26.30213 | 49.27929 | 24107 ft | 391 kts | 268° |
| 2026-04-27 00:07 | 26.30135 | 49.24896 | 24382 ft | 393 kts | 268° |
| 2026-04-27 00:08 | 26.30054 | 49.21846 | 24650 ft | 394 kts | 268° |
| 2026-04-27 00:08 | 26.29971 | 49.18779 | 24916 ft | 396 kts | 268° |
| 2026-04-27 00:08 | 26.29884 | 49.15704 | 25174 ft | 398 kts | 268° |
| 2026-04-27 00:08 | 26.29794 | 49.12621 | 25465 ft | 399 kts | 267° |
| 2026-04-27 00:09 | 26.29700 | 49.09531 | 25737 ft | 400 kts | 266° |
| 2026-04-27 00:09 | 26.29540 | 49.06432 | 25980 ft | 402 kts | 265° |
| 2026-04-27 00:09 | 26.29311 | 49.03322 | 26215 ft | 403 kts | 264° |
| 2026-04-27 00:09 | 26.29051 | 49.00244 | 26440 ft | 405 kts | 264° |
| 2026-04-27 00:10 | 26.28779 | 48.97117 | 26662 ft | 406 kts | 264° |
| 2026-04-27 00:10 | 26.28510 | 48.93977 | 26869 ft | 408 kts | 264° |
| 2026-04-27 00:10 | 26.28249 | 48.90824 | 27066 ft | 409 kts | 264° |
| 2026-04-27 00:10 | 26.27996 | 48.87659 | 27250 ft | 411 kts | 264° |
| 2026-04-27 00:11 | 26.27751 | 48.84484 | 27431 ft | 412 kts | 264° |
| 2026-04-27 00:11 | 26.27511 | 48.81305 | 27684 ft | 411 kts | 264° |
| 2026-04-27 00:11 | 26.27272 | 48.78137 | 27950 ft | 411 kts | 264° |
| 2026-04-27 00:11 | 26.27029 | 48.74972 | 28212 ft | 410 kts | 264° |
| 2026-04-27 00:12 | 26.26782 | 48.71808 | 28468 ft | 409 kts | 264° |
| 2026-04-27 00:12 | 26.26532 | 48.68648 | 28730 ft | 409 kts | 264° |
| 2026-04-27 00:12 | 26.26284 | 48.65495 | 28991 ft | 408 kts | 264° |
| 2026-04-27 00:12 | 26.26035 | 48.62349 | 29255 ft | 408 kts | 264° |
| 2026-04-27 00:13 | 26.25782 | 48.59199 | 29513 ft | 407 kts | 264° |
| 2026-04-27 00:13 | 26.25528 | 48.56053 | 29776 ft | 407 kts | 264° |
| 2026-04-27 00:13 | 26.25273 | 48.52951 | 30025 ft | 406 kts | 263° |
| 2026-04-27 00:13 | 26.24709 | 48.49874 | 30242 ft | 406 kts | 254° |
| 2026-04-27 00:14 | 26.23660 | 48.46950 | 30451 ft | 407 kts | 247° |
| 2026-04-27 00:14 | 26.22465 | 48.44102 | 30673 ft | 406 kts | 248° |
| 2026-04-27 00:14 | 26.21273 | 48.41260 | 30917 ft | 404 kts | 248° |
| 2026-04-27 00:14 | 26.20087 | 48.38427 | 31155 ft | 403 kts | 248° |
| 2026-04-27 00:15 | 26.18902 | 48.35595 | 31395 ft | 401 kts | 248° |
| 2026-04-27 00:15 | 26.17727 | 48.32780 | 31624 ft | 400 kts | 249° |
| 2026-04-27 00:15 | 26.16572 | 48.30010 | 31842 ft | 399 kts | 249° |
| 2026-04-27 00:15 | 26.15403 | 48.27209 | 32057 ft | 398 kts | 249° |
| 2026-04-27 00:16 | 26.14234 | 48.24418 | 32265 ft | 398 kts | 249° |
| 2026-04-27 00:16 | 26.13066 | 48.21634 | 32463 ft | 397 kts | 249° |
| 2026-04-27 00:16 | 26.11893 | 48.18858 | 32653 ft | 397 kts | 247° |
| 2026-04-27 00:16 | 26.10430 | 48.16227 | 32838 ft | 403 kts | 238° |
| 2026-04-27 00:17 | 26.08655 | 48.13806 | 33017 ft | 404 kts | 237° |
| 2026-04-27 00:17 | 26.06860 | 48.11397 | 33199 ft | 404 kts | 237° |
| 2026-04-27 00:17 | 26.05066 | 48.08989 | 33383 ft | 404 kts | 237° |
| 2026-04-27 00:17 | 26.03277 | 48.06587 | 33569 ft | 403 kts | 237° |
| 2026-04-27 00:18 | 26.01493 | 48.04186 | 33755 ft | 402 kts | 237° |
| 2026-04-27 00:18 | 25.99714 | 48.01790 | 33900 ft | 402 kts | 238° |
| 2026-04-27 00:18 | 25.96159 | 47.96999 | 33931 ft | 401 kts | 238° |
| 2026-04-27 00:19 | 25.92605 | 47.92217 | 33931 ft | 401 kts | 238° |
| 2026-04-27 00:19 | 25.89050 | 47.87442 | 33931 ft | 401 kts | 238° |
| 2026-04-27 00:20 | 25.85512 | 47.82701 | 33934 ft | 401 kts | 237° |
| 2026-04-27 00:20 | 25.81947 | 47.77941 | 33930 ft | 401 kts | 237° |
| 2026-04-27 00:21 | 25.78382 | 47.73163 | 33913 ft | 402 kts | 237° |
| 2026-04-27 00:21 | 25.74803 | 47.68390 | 33924 ft | 403 kts | 237° |
| 2026-04-27 00:22 | 25.71221 | 47.63603 | 33932 ft | 403 kts | 237° |
| 2026-04-27 00:22 | 25.67648 | 47.58822 | 33936 ft | 403 kts | 237° |
| 2026-04-27 00:23 | 25.64068 | 47.54036 | 33946 ft | 403 kts | 237° |
| 2026-04-27 00:23 | 25.60485 | 47.49247 | 33950 ft | 404 kts | 237° |
| 2026-04-27 00:24 | 25.56890 | 47.44462 | 33955 ft | 404 kts | 237° |
| 2026-04-27 00:24 | 25.53281 | 47.39681 | 33957 ft | 404 kts | 237° |
| 2026-04-27 00:25 | 25.49692 | 47.34931 | 33953 ft | 405 kts | 237° |
| 2026-04-27 00:25 | 25.46076 | 47.30131 | 33962 ft | 405 kts | 237° |
| 2026-04-27 00:26 | 25.42462 | 47.25325 | 33963 ft | 406 kts | 237° |
| 2026-04-27 00:26 | 25.38852 | 47.20557 | 33969 ft | 406 kts | 237° |
| 2026-04-27 00:27 | 25.35219 | 47.15765 | 33947 ft | 407 kts | 236° |
| 2026-04-27 00:27 | 25.31584 | 47.10962 | 33953 ft | 408 kts | 236° |
| 2026-04-27 00:28 | 25.27932 | 47.06148 | 33964 ft | 408 kts | 236° |
| 2026-04-27 00:28 | 25.24282 | 47.01335 | 33971 ft | 409 kts | 236° |
| 2026-04-27 00:29 | 25.20626 | 46.96522 | 33975 ft | 409 kts | 236° |
| 2026-04-27 00:29 | 25.16964 | 46.91705 | 33976 ft | 409 kts | 236° |
| 2026-04-27 00:30 | 25.13329 | 46.86939 | 33971 ft | 409 kts | 236° |
| 2026-04-27 00:30 | 25.09669 | 46.82139 | 33970 ft | 409 kts | 236° |
| 2026-04-27 00:31 | 25.06011 | 46.77337 | 33967 ft | 409 kts | 236° |
| 2026-04-27 00:31 | 25.02354 | 46.72536 | 33977 ft | 409 kts | 236° |
| 2026-04-27 00:32 | 24.98686 | 46.67739 | 33969 ft | 409 kts | 237° |
| 2026-04-27 00:32 | 24.95540 | 46.62603 | 33968 ft | 403 kts | 243° |
| 2026-04-27 00:33 | 24.92511 | 46.57392 | 33948 ft | 404 kts | 243° |
| 2026-04-27 00:33 | 24.89491 | 46.52215 | 33964 ft | 405 kts | 242° |
| 2026-04-27 00:34 | 24.86445 | 46.46997 | 33962 ft | 405 kts | 242° |
| 2026-04-27 00:34 | 24.83398 | 46.41774 | 33970 ft | 406 kts | 242° |
| 2026-04-27 00:35 | 24.80356 | 46.36548 | 33977 ft | 406 kts | 243° |
| 2026-04-27 00:35 | 24.77304 | 46.31324 | 33977 ft | 406 kts | 242° |
| 2026-04-27 00:36 | 24.74239 | 46.26109 | 33983 ft | 406 kts | 242° |
| 2026-04-27 00:36 | 24.71179 | 46.20895 | 33981 ft | 405 kts | 242° |
| 2026-04-27 00:37 | 24.68129 | 46.15689 | 33962 ft | 405 kts | 242° |
| 2026-04-27 00:37 | 24.65069 | 46.10484 | 33963 ft | 405 kts | 242° |
| 2026-04-27 00:38 | 24.62001 | 46.05281 | 33968 ft | 406 kts | 242° |
| 2026-04-27 00:38 | 24.59454 | 46.00958 | 33957 ft | 406 kts | 242° |
| 2026-04-27 00:39 | 24.56386 | 45.95747 | 33955 ft | 405 kts | 242° |
| 2026-04-27 00:39 | 24.53337 | 45.90581 | 33953 ft | 405 kts | 242° |
| 2026-04-27 00:40 | 24.50268 | 45.85383 | 33955 ft | 406 kts | 242° |
| 2026-04-27 00:40 | 24.47191 | 45.80188 | 33951 ft | 406 kts | 242° |
| 2026-04-27 00:41 | 24.44358 | 45.74873 | 33948 ft | 401 kts | 248° |
| 2026-04-27 00:41 | 24.41921 | 45.69349 | 33948 ft | 401 kts | 248° |
| 2026-04-27 00:42 | 24.39469 | 45.63839 | 33950 ft | 402 kts | 248° |
| 2026-04-27 00:42 | 24.37011 | 45.58332 | 33951 ft | 402 kts | 248° |
| 2026-04-27 00:43 | 24.34567 | 45.52853 | 33944 ft | 402 kts | 248° |
| 2026-04-27 00:43 | 24.32114 | 45.47332 | 33948 ft | 403 kts | 248° |
| 2026-04-27 00:44 | 24.29646 | 45.41813 | 33952 ft | 403 kts | 248° |
| 2026-04-27 00:44 | 24.27177 | 45.36299 | 33955 ft | 403 kts | 248° |
| 2026-04-27 00:45 | 24.24708 | 45.30780 | 33954 ft | 403 kts | 248° |
| 2026-04-27 00:45 | 24.22233 | 45.25263 | 33962 ft | 403 kts | 248° |
| 2026-04-27 00:46 | 24.19761 | 45.19748 | 33950 ft | 403 kts | 248° |
| 2026-04-27 00:46 | 24.17282 | 45.14231 | 33950 ft | 404 kts | 248° |
| 2026-04-27 00:47 | 24.14812 | 45.08749 | 33950 ft | 404 kts | 248° |
| 2026-04-27 00:47 | 24.12327 | 45.03212 | 33960 ft | 405 kts | 248° |
| 2026-04-27 00:48 | 24.09835 | 44.97684 | 33950 ft | 405 kts | 248° |
| 2026-04-27 00:48 | 24.07329 | 44.92152 | 33952 ft | 405 kts | 248° |
| 2026-04-27 00:49 | 24.04851 | 44.86667 | 33958 ft | 404 kts | 248° |
| 2026-04-27 00:49 | 24.02338 | 44.81120 | 33957 ft | 404 kts | 248° |
| 2026-04-27 00:50 | 23.98604 | 44.72879 | 33936 ft | 405 kts | 248° |
| 2026-04-27 00:51 | 23.96091 | 44.67357 | 33936 ft | 406 kts | 248° |
| 2026-04-27 00:51 | 23.93577 | 44.61834 | 33936 ft | 406 kts | 248° |
| 2026-04-27 00:52 | 23.91820 | 44.56056 | 33952 ft | 400 kts | 259° |
| 2026-04-27 00:52 | 23.90575 | 44.50135 | 33951 ft | 400 kts | 259° |
| 2026-04-27 00:53 | 23.89323 | 44.44257 | 33946 ft | 399 kts | 259° |
| 2026-04-27 00:53 | 23.88052 | 44.38350 | 33947 ft | 399 kts | 259° |
| 2026-04-27 00:54 | 23.86788 | 44.32443 | 33944 ft | 398 kts | 259° |
| 2026-04-27 00:54 | 23.85529 | 44.26556 | 33942 ft | 397 kts | 259° |
| 2026-04-27 00:55 | 23.84273 | 44.20680 | 33956 ft | 397 kts | 259° |
| 2026-04-27 00:55 | 23.83019 | 44.14858 | 33947 ft | 396 kts | 259° |
| 2026-04-27 00:56 | 23.81755 | 44.09005 | 33945 ft | 396 kts | 259° |
| 2026-04-27 00:56 | 23.80491 | 44.03165 | 33944 ft | 395 kts | 259° |
| 2026-04-27 00:57 | 23.79226 | 43.97319 | 33920 ft | 396 kts | 259° |
| 2026-04-27 00:57 | 23.77956 | 43.91456 | 33918 ft | 397 kts | 259° |
| 2026-04-27 00:58 | 23.76684 | 43.85594 | 33924 ft | 397 kts | 259° |
| 2026-04-27 00:58 | 23.75396 | 43.79729 | 33919 ft | 397 kts | 258° |
| 2026-04-27 00:59 | 23.74107 | 43.73853 | 33926 ft | 398 kts | 259° |
| 2026-04-27 00:59 | 23.72825 | 43.68015 | 33926 ft | 399 kts | 258° |
| 2026-04-27 01:00 | 23.71519 | 43.62126 | 33948 ft | 399 kts | 258° |
| 2026-04-27 01:00 | 23.70214 | 43.56239 | 33928 ft | 399 kts | 259° |
| 2026-04-27 01:01 | 23.68917 | 43.50341 | 33939 ft | 400 kts | 259° |
| 2026-04-27 01:01 | 23.67611 | 43.44435 | 33943 ft | 400 kts | 259° |
| 2026-04-27 01:02 | 23.66303 | 43.38531 | 33960 ft | 400 kts | 259° |
| 2026-04-27 01:02 | 23.64983 | 43.32631 | 33965 ft | 400 kts | 259° |
| 2026-04-27 01:03 | 23.63673 | 43.26736 | 33971 ft | 399 kts | 259° |
| 2026-04-27 01:03 | 23.62359 | 43.20860 | 33961 ft | 399 kts | 258° |
| 2026-04-27 01:04 | 23.61052 | 43.15023 | 33959 ft | 399 kts | 258° |
| 2026-04-27 01:04 | 23.59732 | 43.09144 | 33963 ft | 399 kts | 259° |
| 2026-04-27 01:05 | 23.58411 | 43.03253 | 33964 ft | 399 kts | 258° |
| 2026-04-27 01:05 | 23.57082 | 42.97369 | 33968 ft | 399 kts | 258° |
| 2026-04-27 01:06 | 23.55759 | 42.91498 | 33971 ft | 399 kts | 258° |
| 2026-04-27 01:06 | 23.54428 | 42.85614 | 33971 ft | 399 kts | 258° |
| 2026-04-27 01:07 | 23.53100 | 42.79746 | 33962 ft | 399 kts | 258° |
| 2026-04-27 01:07 | 23.51770 | 42.73903 | 33967 ft | 399 kts | 258° |
| 2026-04-27 01:08 | 23.50439 | 42.68039 | 33963 ft | 399 kts | 258° |
| 2026-04-27 01:08 | 23.49106 | 42.62168 | 33963 ft | 398 kts | 258° |
| 2026-04-27 01:09 | 23.47780 | 42.56342 | 33974 ft | 398 kts | 258° |
| 2026-04-27 01:09 | 23.46442 | 42.50485 | 33970 ft | 398 kts | 258° |
| 2026-04-27 01:10 | 23.45105 | 42.44625 | 33970 ft | 399 kts | 258° |
| 2026-04-27 01:10 | 23.43765 | 42.38764 | 33979 ft | 399 kts | 258° |
| 2026-04-27 01:11 | 23.42422 | 42.32909 | 33976 ft | 399 kts | 258° |
| 2026-04-27 01:11 | 23.41080 | 42.27052 | 33977 ft | 399 kts | 258° |
| 2026-04-27 01:12 | 23.39729 | 42.21188 | 33979 ft | 399 kts | 258° |
| 2026-04-27 01:12 | 23.38376 | 42.15367 | 33995 ft | 399 kts | 258° |
| 2026-04-27 01:13 | 23.37022 | 42.09517 | 33996 ft | 399 kts | 258° |
| 2026-04-27 01:13 | 23.35664 | 42.03658 | 33990 ft | 399 kts | 258° |
| 2026-04-27 01:14 | 23.34314 | 41.97836 | 34003 ft | 398 kts | 258° |
| 2026-04-27 01:14 | 23.32964 | 41.91994 | 33985 ft | 398 kts | 257° |
| 2026-04-27 01:15 | 23.31609 | 41.86141 | 33988 ft | 399 kts | 257° |
| 2026-04-27 01:15 | 23.30236 | 41.80282 | 33997 ft | 400 kts | 257° |
| 2026-04-27 01:16 | 23.28859 | 41.74416 | 34012 ft | 400 kts | 257° |
| 2026-04-27 01:16 | 23.26524 | 41.68937 | 34012 ft | 407 kts | 242° |
| 2026-04-27 01:17 | 23.23446 | 41.63767 | 34013 ft | 407 kts | 242° |
| 2026-04-27 01:17 | 23.20374 | 41.58577 | 33999 ft | 407 kts | 241° |
| 2026-04-27 01:18 | 23.17323 | 41.53392 | 34023 ft | 407 kts | 242° |
| 2026-04-27 01:18 | 23.14285 | 41.48241 | 34035 ft | 407 kts | 242° |
| 2026-04-27 01:19 | 23.11206 | 41.43068 | 34029 ft | 407 kts | 242° |
| 2026-04-27 01:19 | 23.08131 | 41.37896 | 34045 ft | 407 kts | 242° |
| 2026-04-27 01:20 | 23.05062 | 41.32721 | 34047 ft | 407 kts | 242° |
| 2026-04-27 01:20 | 23.01993 | 41.27549 | 34047 ft | 407 kts | 242° |
| 2026-04-27 01:21 | 22.98919 | 41.22382 | 34057 ft | 407 kts | 242° |
| 2026-04-27 01:21 | 22.95841 | 41.17219 | 34051 ft | 407 kts | 242° |
| 2026-04-27 01:22 | 22.92774 | 41.12086 | 34056 ft | 408 kts | 242° |
| 2026-04-27 01:22 | 22.89697 | 41.06920 | 34052 ft | 408 kts | 242° |
| 2026-04-27 01:23 | 22.86617 | 41.01748 | 34028 ft | 408 kts | 242° |
| 2026-04-27 01:23 | 22.83522 | 40.96573 | 34029 ft | 409 kts | 241° |
| 2026-04-27 01:24 | 22.80413 | 40.91395 | 34044 ft | 410 kts | 242° |
| 2026-04-27 01:24 | 22.77324 | 40.86236 | 34050 ft | 410 kts | 242° |
| 2026-04-27 01:25 | 22.74212 | 40.81051 | 34056 ft | 410 kts | 241° |
| 2026-04-27 01:25 | 22.71092 | 40.75862 | 34041 ft | 411 kts | 242° |
| 2026-04-27 01:26 | 22.67965 | 40.70666 | 34052 ft | 412 kts | 241° |
| 2026-04-27 01:26 | 22.64833 | 40.65459 | 34055 ft | 412 kts | 241° |
| 2026-04-27 01:27 | 22.61698 | 40.60254 | 34062 ft | 413 kts | 241° |
| 2026-04-27 01:27 | 22.58563 | 40.55046 | 34067 ft | 413 kts | 241° |
| 2026-04-27 01:28 | 22.55439 | 40.49873 | 34059 ft | 413 kts | 241° |
| 2026-04-27 01:28 | 22.52287 | 40.44658 | 34077 ft | 414 kts | 241° |
| 2026-04-27 01:29 | 22.49127 | 40.39451 | 34084 ft | 414 kts | 241° |
| 2026-04-27 01:29 | 22.45970 | 40.34236 | 34088 ft | 414 kts | 241° |
| 2026-04-27 01:30 | 22.42819 | 40.29031 | 34089 ft | 414 kts | 241° |
| 2026-04-27 01:30 | 22.40193 | 40.24703 | 34108 ft | 414 kts | 241° |
| 2026-04-27 01:31 | 22.37026 | 40.19498 | 34075 ft | 414 kts | 241° |
| 2026-04-27 01:31 | 22.33860 | 40.14292 | 34069 ft | 414 kts | 241° |
| 2026-04-27 01:32 | 22.30715 | 40.09126 | 34053 ft | 414 kts | 241° |
| 2026-04-27 01:32 | 22.27558 | 40.03931 | 34047 ft | 414 kts | 241° |
| 2026-04-27 01:33 | 22.24392 | 39.98732 | 34034 ft | 414 kts | 241° |
| 2026-04-27 01:33 | 22.21216 | 39.93538 | 33978 ft | 414 kts | 241° |
| 2026-04-27 01:34 | 22.18039 | 39.88345 | 33985 ft | 415 kts | 241° |
| 2026-04-27 01:34 | 22.14853 | 39.83147 | 33969 ft | 415 kts | 241° |
| 2026-04-27 01:35 | 22.11692 | 39.77977 | 33980 ft | 415 kts | 241° |
| 2026-04-27 01:35 | 22.08515 | 39.72770 | 33953 ft | 415 kts | 241° |
| 2026-04-27 01:36 | 22.05332 | 39.67585 | 33953 ft | 414 kts | 241° |
| 2026-04-27 01:36 | 22.02140 | 39.62400 | 33930 ft | 414 kts | 241° |
| 2026-04-27 01:37 | 21.98954 | 39.57218 | 33923 ft | 414 kts | 241° |
| 2026-04-27 01:37 | 21.95813 | 39.52126 | 33854 ft | 396 kts | 241° |
| 2026-04-27 01:37 | 21.94335 | 39.49679 | 33610 ft | 383 kts | 245° |
| 2026-04-27 01:38 | 21.93181 | 39.47171 | 33200 ft | 375 kts | 248° |
| 2026-04-27 01:38 | 21.92065 | 39.44653 | 32733 ft | 371 kts | 248° |
| 2026-04-27 01:38 | 21.90951 | 39.42131 | 31804 ft | 375 kts | 248° |
| 2026-04-27 01:38 | 21.89829 | 39.39595 | 30850 ft | 376 kts | 248° |
| 2026-04-27 01:39 | 21.88695 | 39.37048 | 29915 ft | 378 kts | 248° |
| 2026-04-27 01:39 | 21.87553 | 39.34487 | 28849 ft | 379 kts | 247° |
| 2026-04-27 01:39 | 21.86413 | 39.31934 | 27814 ft | 379 kts | 246° |
| 2026-04-27 01:39 | 21.85268 | 39.29376 | 26802 ft | 379 kts | 246° |
| 2026-04-27 01:40 | 21.84126 | 39.26824 | 25843 ft | 378 kts | 245° |
| 2026-04-27 01:40 | 21.82984 | 39.24274 | 24909 ft | 377 kts | 245° |
| 2026-04-27 01:40 | 21.81776 | 39.21788 | 24197 ft | 371 kts | 235° |
| 2026-04-27 01:40 | 21.80195 | 39.19701 | 23694 ft | 360 kts | 231° |
| 2026-04-27 01:41 | 21.78557 | 39.17656 | 23119 ft | 351 kts | 230° |
| 2026-04-27 01:41 | 21.76978 | 39.15706 | 22594 ft | 340 kts | 230° |
| 2026-04-27 01:41 | 21.75463 | 39.13850 | 22140 ft | 329 kts | 230° |
| 2026-04-27 01:41 | 21.73978 | 39.12036 | 21697 ft | 319 kts | 231° |
| 2026-04-27 01:42 | 21.72537 | 39.10272 | 21245 ft | 309 kts | 231° |
| 2026-04-27 01:42 | 21.71137 | 39.08555 | 20811 ft | 300 kts | 230° |
| 2026-04-27 01:42 | 21.69780 | 39.06888 | 20400 ft | 292 kts | 231° |
| 2026-04-27 01:42 | 21.68460 | 39.05272 | 19999 ft | 284 kts | 229° |
| 2026-04-27 01:43 | 21.66904 | 39.04006 | 19603 ft | 283 kts | 207° |
| 2026-04-27 01:43 | 21.64967 | 39.03591 | 19207 ft | 291 kts | 183° |
| 2026-04-27 01:43 | 21.62948 | 39.04100 | 18771 ft | 302 kts | 167° |
| 2026-04-27 01:43 | 21.60975 | 39.04868 | 18351 ft | 301 kts | 166° |
| 2026-04-27 01:44 | 21.59018 | 39.05649 | 17879 ft | 299 kts | 166° |
| 2026-04-27 01:44 | 21.57075 | 39.06430 | 17369 ft | 296 kts | 166° |
| 2026-04-27 01:44 | 21.55155 | 39.07201 | 16886 ft | 293 kts | 166° |
| 2026-04-27 01:44 | 21.53249 | 39.07961 | 16417 ft | 290 kts | 165° |
| 2026-04-27 01:45 | 21.51412 | 39.08688 | 16168 ft | 282 kts | 165° |
| 2026-04-27 01:45 | 21.49573 | 39.09414 | 15828 ft | 281 kts | 165° |
| 2026-04-27 01:45 | 21.47749 | 39.10133 | 15439 ft | 277 kts | 165° |
| 2026-04-27 01:45 | 21.45947 | 39.10844 | 15010 ft | 274 kts | 164° |
| 2026-04-27 01:46 | 21.44157 | 39.11550 | 14578 ft | 272 kts | 164° |
| 2026-04-27 01:46 | 21.42387 | 39.12247 | 14156 ft | 270 kts | 163° |
| 2026-04-27 01:46 | 21.40631 | 39.12939 | 13732 ft | 268 kts | 163° |
| 2026-04-27 01:46 | 21.38927 | 39.13613 | 13516 ft | 264 kts | 163° |
| 2026-04-27 01:47 | 21.37190 | 39.14298 | 13176 ft | 266 kts | 163° |
| 2026-04-27 01:47 | 21.35460 | 39.14981 | 12917 ft | 264 kts | 163° |
| 2026-04-27 01:47 | 21.33763 | 39.15653 | 12717 ft | 256 kts | 163° |
| 2026-04-27 01:47 | 21.32100 | 39.16310 | 12339 ft | 252 kts | 163° |
| 2026-04-27 01:48 | 21.30463 | 39.16956 | 11971 ft | 250 kts | 163° |
| 2026-04-27 01:48 | 21.28837 | 39.17599 | 11613 ft | 248 kts | 163° |
| 2026-04-27 01:48 | 21.27226 | 39.18237 | 11247 ft | 246 kts | 162° |
| 2026-04-27 01:48 | 21.25705 | 39.19064 | 10889 ft | 249 kts | 142° |
| 2026-04-27 01:49 | 21.24765 | 39.20621 | 10540 ft | 256 kts | 108° |
| 2026-04-27 01:49 | 21.24797 | 39.22499 | 10210 ft | 264 kts | 75° |
| 2026-04-27 01:49 | 21.25413 | 39.24363 | 9862 ft | 264 kts | 71° |
| 2026-04-27 01:49 | 21.26059 | 39.26206 | 9503 ft | 263 kts | 69° |
| 2026-04-27 01:50 | 21.27082 | 39.27801 | 9123 ft | 261 kts | 38° |
| 2026-04-27 01:50 | 21.28698 | 39.28588 | 8750 ft | 255 kts | 6° |
| 2026-04-27 01:50 | 21.30419 | 39.28404 | 8386 ft | 248 kts | 339° |
| 2026-04-27 01:50 | 21.32032 | 39.27776 | 8018 ft | 245 kts | 338° |
| 2026-04-27 01:51 | 21.33625 | 39.27147 | 7658 ft | 243 kts | 338° |
| 2026-04-27 01:51 | 21.35205 | 39.26522 | 7303 ft | 241 kts | 338° |
| 2026-04-27 01:51 | 21.36769 | 39.25903 | 6952 ft | 238 kts | 338° |
| 2026-04-27 01:51 | 21.38322 | 39.25290 | 6508 ft | 240 kts | 339° |
| 2026-04-27 01:52 | 21.39920 | 39.24658 | 5860 ft | 250 kts | 339° |
| 2026-04-27 01:52 | 21.41568 | 39.24007 | 5356 ft | 252 kts | 339° |
| 2026-04-27 01:52 | 21.43173 | 39.23374 | 4988 ft | 246 kts | 339° |
| 2026-04-27 01:52 | 21.44768 | 39.22745 | 4635 ft | 241 kts | 339° |
| 2026-04-27 01:53 | 21.46328 | 39.22130 | 4268 ft | 237 kts | 340° |
| 2026-04-27 01:53 | 21.47860 | 39.21525 | 3903 ft | 233 kts | 340° |
| 2026-04-27 01:53 | 21.49375 | 39.20927 | 3540 ft | 230 kts | 340° |
| 2026-04-27 01:53 | 21.50868 | 39.20338 | 3188 ft | 227 kts | 340° |
| 2026-04-27 01:54 | 21.52340 | 39.19757 | 2815 ft | 224 kts | 340° |
| 2026-04-27 01:54 | 21.53781 | 39.19190 | 2607 ft | 217 kts | 340° |
| 2026-04-27 01:54 | 21.55183 | 39.18640 | 2362 ft | 213 kts | 340° |
| 2026-04-27 01:54 | 21.56573 | 39.18093 | 2095 ft | 212 kts | 340° |
| 2026-04-27 01:55 | 21.57926 | 39.17560 | 1840 ft | 200 kts | 340° |
| 2026-04-27 01:55 | 21.59152 | 39.17078 | 1653 ft | 174 kts | 341° |
| 2026-04-27 01:55 | 21.60240 | 39.16651 | 1379 ft | 158 kts | 341° |
| 2026-04-27 01:55 | 21.61240 | 39.16253 | 1157 ft | 150 kts | 340° |
| 2026-04-27 01:56 | 21.63165 | 39.15495 | 828 ft | 146 kts | 340° |
| 2026-04-27 01:56 | 21.64120 | 39.15121 | 679 ft | 145 kts | 340° |
| 2026-04-27 01:56 | 21.65055 | 39.14751 | 484 ft | 144 kts | 340° |
| 2026-04-27 01:57 | 21.65994 | 39.14378 | 300 ft | 144 kts | 340° |
| 2026-04-27 01:57 | 21.66930 | 39.14006 | 116 ft | 143 kts | 340° |
| 2026-04-27 01:57 | 21.67834 | 39.13648 | 36 ft | 127 kts | 340° |
| 2026-04-27 01:57 | 21.68515 | 39.13381 | 29 ft | 79 kts | 340° |
| 2026-04-27 01:58 | 21.68873 | 39.13241 | 28 ft | 34 kts | 340° |
| 2026-04-27 01:58 | 21.69090 | 39.13184 | 27 ft | 32 kts | 5° |
| 2026-04-27 01:58 | 21.69241 | 39.13214 | 30 ft | 15 kts | 12° |
| 2026-04-27 01:58 | 21.69289 | 39.13280 | 31 ft | 13 kts | 121° |
| 2026-04-27 01:59 | 21.69211 | 39.13326 | 27 ft | 14 kts | 159° |
| 2026-04-27 01:59 | 21.69114 | 39.13365 | 27 ft | 16 kts | 159° |
| 2026-04-27 01:59 | 21.68999 | 39.13413 | 28 ft | 19 kts | 160° |
| 2026-04-27 01:59 | 21.68866 | 39.13463 | 28 ft | 22 kts | 159° |
| 2026-04-27 02:00 | 21.68717 | 39.13522 | 29 ft | 24 kts | 159° |
| 2026-04-27 02:00 | 21.68554 | 39.13588 | 29 ft | 26 kts | 159° |
| 2026-04-27 02:00 | 21.68388 | 39.13652 | 30 ft | 24 kts | 160° |
| 2026-04-27 02:00 | 21.68276 | 39.13699 | 30 ft | 17 kts | 158° |
| 2026-04-27 02:01 | 21.68233 | 39.13793 | 31 ft | 16 kts | 71° |
| 2026-04-27 02:01 | 21.68274 | 39.13912 | 31 ft | 18 kts | 69° |
| 2026-04-27 02:01 | 21.68320 | 39.14042 | 30 ft | 19 kts | 69° |
| 2026-04-27 02:01 | 21.68368 | 39.14184 | 29 ft | 21 kts | 71° |
| 2026-04-27 02:02 | 21.68418 | 39.14338 | 28 ft | 23 kts | 69° |
| 2026-04-27 02:02 | 21.68475 | 39.14502 | 27 ft | 24 kts | 69° |
| 2026-04-27 02:02 | 21.68537 | 39.14677 | 30 ft | 26 kts | 69° |
| 2026-04-27 02:02 | 21.68601 | 39.14861 | 27 ft | 27 kts | 69° |
| 2026-04-27 02:03 | 21.68669 | 39.15053 | 25 ft | 28 kts | 69° |
| 2026-04-27 02:03 | 21.68732 | 39.15237 | 26 ft | 17 kts | 74° |
| 2026-04-27 02:03 | 21.68696 | 39.15265 | 24 ft | 7 kts | 163° |
| 2026-04-27 02:03 | 21.68646 | 39.15282 | 25 ft | 8 kts | 160° |
| 2026-04-27 02:04 | 21.68585 | 39.15306 | 25 ft | 11 kts | 160° |
| 2026-04-27 02:04 | 21.68508 | 39.15336 | 27 ft | 13 kts | 160° |
| 2026-04-27 02:04 | 21.68414 | 39.15373 | 28 ft | 16 kts | 160° |
| 2026-04-27 02:04 | 21.68304 | 39.15417 | 29 ft | 18 kts | 160° |
| 2026-04-27 02:05 | 21.68180 | 39.15466 | 27 ft | 20 kts | 160° |
| 2026-04-27 02:05 | 21.68042 | 39.15520 | 28 ft | 22 kts | 160° |
| 2026-04-27 02:05 | 21.67893 | 39.15579 | 29 ft | 23 kts | 160° |
| 2026-04-27 02:05 | 21.67738 | 39.15640 | 30 ft | 24 kts | 160° |
| 2026-04-27 02:06 | 21.67580 | 39.15702 | 30 ft | 25 kts | 160° |
| 2026-04-27 02:06 | 21.67415 | 39.15767 | 30 ft | 26 kts | 160° |
| 2026-04-27 02:06 | 21.67245 | 39.15834 | 29 ft | 26 kts | 160° |
| 2026-04-27 02:06 | 21.67070 | 39.15903 | 32 ft | 27 kts | 160° |
| 2026-04-27 02:07 | 21.66892 | 39.15974 | 32 ft | 28 kts | 159° |
| 2026-04-27 02:07 | 21.66709 | 39.16047 | 33 ft | 28 kts | 159° |
| 2026-04-27 02:07 | 21.66522 | 39.16119 | 34 ft | 29 kts | 160° |
| 2026-04-27 02:07 | 21.66403 | 39.16165 | 35 ft | 29 kts | 160° |